createdAt,value
2022-12-12T00:01:48.704Z,101022.50
2022-12-12T00:04:15.413Z,101026.13
2022-12-12T00:06:42.122Z,101029.63
2022-12-12T00:09:09.602Z,101030.53
2022-12-12T00:11:36.419Z,101027.88
2022-12-12T00:14:03.918Z,101037.84
2022-12-12T00:16:31.457Z,101037.91
2022-12-12T00:18:58.259Z,101031.59
2022-12-12T00:21:27.762Z,101030.47
2022-12-12T00:23:55.135Z,101033.03
2022-12-12T00:26:24.961Z,101022.47
2022-12-12T00:28:52.165Z,101021.47
2022-12-12T00:31:19.620Z,101023.28
2022-12-12T00:33:48.992Z,101021.41
2022-12-12T00:36:22.212Z,101011.72
2022-12-12T00:38:49.030Z,101018.84
2022-12-12T00:41:16.496Z,101010.81
2022-12-12T00:43:43.435Z,101011.72
2022-12-12T00:46:15.166Z,101018.19
2022-12-12T00:48:42.607Z,101017.31
2022-12-12T00:51:11.954Z,101012.75
2022-12-12T00:53:39.138Z,101004.91
2022-12-12T00:56:06.255Z,101000.41
2022-12-12T00:58:33.670Z,101002.06
2022-12-12T01:01:06.531Z,100992.25
2022-12-12T01:03:38.597Z,101002.97
2022-12-12T01:06:06.209Z,101005.66
2022-12-12T01:08:33.086Z,101014.34
2022-12-12T01:10:59.861Z,101004.53
2022-12-12T01:13:27.870Z,101003.56
2022-12-12T01:15:54.737Z,101001.63
2022-12-12T01:18:21.665Z,100998.88
2022-12-12T01:20:48.610Z,100998.97
2022-12-12T01:23:15.787Z,101005.31
2022-12-12T01:25:42.634Z,101004.34
2022-12-12T01:28:09.802Z,101001.66
2022-12-12T01:30:37.288Z,101004.19
2022-12-12T01:33:04.448Z,101001.38
2022-12-12T01:35:33.246Z,100995.16
2022-12-12T01:38:00.094Z,101003.00
2022-12-12T01:40:29.891Z,100996.75
2022-12-12T01:42:57.040Z,100996.69
2022-12-12T01:45:58.274Z,100994.00
2022-12-12T01:48:38.598Z,100985.16
2022-12-12T01:51:27.533Z,100995.28
2022-12-12T01:54:01.774Z,100989.97
2022-12-12T01:56:29.069Z,100997.09
2022-12-12T01:58:57.477Z,100998.25
2022-12-12T02:01:25.005Z,100994.91
2022-12-12T02:03:52.606Z,100990.53
2022-12-12T02:06:25.063Z,100997.59
2022-12-12T02:08:55.185Z,100995.75
2022-12-12T02:11:21.934Z,100992.22
2022-12-12T02:13:49.765Z,100993.00
2022-12-12T02:16:34.741Z,100994.81
2022-12-12T02:19:17.799Z,100988.63
2022-12-12T02:22:13.114Z,100985.22
2022-12-12T02:25:07.417Z,100992.34
2022-12-12T02:27:46.102Z,100991.53
2022-12-12T02:30:29.150Z,100995.13
2022-12-12T02:33:08.079Z,100996.91
2022-12-12T02:36:11.688Z,100995.19
2022-12-12T02:39:04.133Z,100993.75
2022-12-12T02:41:42.800Z,101000.06
2022-12-12T02:44:28.290Z,101002.72
2022-12-12T02:47:14.169Z,101006.31
2022-12-12T02:49:50.077Z,101003.53
2022-12-12T02:52:17.807Z,100995.44
2022-12-12T02:54:44.816Z,100996.34
2022-12-12T02:57:17.693Z,101001.56
2022-12-12T02:59:50.498Z,100998.84
2022-12-12T03:02:35.952Z,100987.44
2022-12-12T03:05:42.634Z,101000.81
2022-12-12T03:08:44.616Z,100999.09
2022-12-12T03:11:14.782Z,100999.94
2022-12-12T03:13:46.075Z,100994.47
2022-12-12T03:16:24.373Z,100996.09
2022-12-12T03:19:26.832Z,100992.59
2022-12-12T03:22:22.690Z,100983.66
2022-12-12T03:24:58.254Z,100982.78
2022-12-12T03:27:56.954Z,100979.94
2022-12-12T03:30:24.070Z,100974.53
2022-12-12T03:33:06.628Z,100972.59
2022-12-12T03:35:37.760Z,100960.06
2022-12-12T03:38:22.798Z,100963.53
2022-12-12T03:40:53.340Z,100962.63
2022-12-12T03:43:23.052Z,100949.28
2022-12-12T03:46:03.525Z,100955.69
2022-12-12T03:48:33.603Z,100966.31
2022-12-12T03:51:07.945Z,100964.50
2022-12-12T03:53:43.696Z,100958.19
2022-12-12T03:56:10.322Z,100952.75
2022-12-12T03:58:51.589Z,100953.56
2022-12-12T04:01:22.566Z,100948.19
2022-12-12T04:04:08.270Z,100945.53
2022-12-12T04:06:39.997Z,100955.34
2022-12-12T04:09:34.419Z,100963.44
2022-12-12T04:12:31.404Z,100963.63
2022-12-12T04:15:13.662Z,100962.72
2022-12-12T04:18:07.934Z,100961.72
2022-12-12T04:21:10.634Z,100967.00
2022-12-12T04:23:48.295Z,100964.38
2022-12-12T04:26:41.672Z,100968.03
2022-12-12T04:29:08.304Z,100963.00
2022-12-12T04:31:41.362Z,100964.00
2022-12-12T04:34:15.448Z,100966.91
2022-12-12T04:36:45.345Z,100970.50
2022-12-12T04:39:15.521Z,100971.41
2022-12-12T04:41:45.894Z,100975.16
2022-12-12T04:44:16.193Z,100983.94
2022-12-12T04:46:44.928Z,100977.69
2022-12-12T04:49:27.455Z,100985.66
2022-12-12T04:52:00.063Z,100979.81
2022-12-12T04:54:47.924Z,100994.97
2022-12-12T04:57:23.427Z,100996.72
2022-12-12T04:59:50.272Z,101003.72
2022-12-12T05:02:35.480Z,100987.69
2022-12-12T05:05:07.000Z,100999.97
2022-12-12T05:07:43.012Z,101004.53
2022-12-12T05:10:16.331Z,101008.09
2022-12-12T05:12:49.155Z,100994.72
2022-12-12T05:15:17.626Z,100988.50
2022-12-12T05:18:00.825Z,100988.47
2022-12-12T05:20:29.681Z,100986.72
2022-12-12T05:22:56.422Z,100986.78
2022-12-12T05:25:23.281Z,100985.09
2022-12-12T05:27:50.032Z,100992.16
2022-12-12T05:30:17.290Z,100984.31
2022-12-12T05:32:44.227Z,100992.28
2022-12-12T05:35:11.348Z,100995.84
2022-12-12T05:37:38.963Z,100987.00
2022-12-12T05:40:08.440Z,100987.88
2022-12-12T05:42:40.057Z,100994.03
2022-12-12T05:45:09.101Z,100989.66
2022-12-12T05:47:35.838Z,100993.22
2022-12-12T05:50:02.742Z,100992.31
2022-12-12T05:52:29.581Z,100990.53
2022-12-12T05:54:56.277Z,101000.38
2022-12-12T05:57:23.078Z,101008.22
2022-12-12T05:59:49.888Z,101006.53
2022-12-12T06:02:16.886Z,101010.19
2022-12-12T06:04:43.704Z,101017.25
2022-12-12T06:07:10.550Z,101018.84
2022-12-12T06:09:37.320Z,101009.91
2022-12-12T06:12:04.235Z,101003.63
2022-12-12T06:14:30.956Z,100996.59
2022-12-12T06:16:57.732Z,101006.25
2022-12-12T06:19:24.428Z,101003.56
2022-12-12T06:21:51.193Z,101001.03
2022-12-12T06:24:17.857Z,100998.38
2022-12-12T06:26:44.690Z,100999.06
2022-12-12T06:29:14.858Z,101008.91
2022-12-12T06:31:41.829Z,101011.72
2022-12-12T06:34:08.675Z,101011.72
2022-12-12T06:36:35.388Z,101013.50
2022-12-12T06:39:02.403Z,101015.28
2022-12-12T06:41:31.174Z,101020.66
2022-12-12T06:43:58.245Z,101037.63
2022-12-12T06:46:28.669Z,101035.84
2022-12-12T06:48:56.882Z,101041.13
2022-12-12T06:51:29.079Z,101044.69
2022-12-12T06:53:56.636Z,101039.34
2022-12-12T06:56:25.371Z,101036.78
2022-12-12T06:58:53.668Z,101046.66
2022-12-12T07:01:22.818Z,101052.81
2022-12-12T07:03:50.848Z,101050.13
2022-12-12T07:06:19.785Z,101050.16
2022-12-12T07:08:47.385Z,101047.50
2022-12-12T07:11:17.087Z,101053.78
2022-12-12T07:13:44.718Z,101055.56
2022-12-12T07:16:11.847Z,101058.19
2022-12-12T07:18:39.133Z,101053.78
2022-12-12T07:21:08.711Z,101060.78
2022-12-12T07:23:37.267Z,101058.13
2022-12-12T07:26:06.286Z,101064.38
2022-12-12T07:28:33.228Z,101064.28
2022-12-12T07:31:01.423Z,101060.75
2022-12-12T07:33:39.541Z,101070.56
2022-12-12T07:36:10.214Z,101067.88
2022-12-12T07:38:36.970Z,101074.06
2022-12-12T07:41:09.321Z,101082.00
2022-12-12T07:43:41.534Z,101089.06
2022-12-12T07:46:11.356Z,101086.41
2022-12-12T07:48:38.103Z,101098.75
2022-12-12T07:51:05.133Z,101104.03
2022-12-12T07:53:31.907Z,101119.00
2022-12-12T07:55:58.758Z,101111.06
2022-12-12T07:58:25.536Z,101109.28
2022-12-12T08:00:52.254Z,101096.06
2022-12-12T08:03:19.040Z,101090.72
2022-12-12T08:05:45.752Z,101096.97
2022-12-12T08:08:12.527Z,101083.75
2022-12-12T08:10:40.391Z,101087.22
2022-12-12T08:13:07.791Z,101085.41
2022-12-12T08:15:34.848Z,101086.28
2022-12-12T08:18:01.614Z,101078.34
2022-12-12T08:20:28.338Z,101081.84
2022-12-12T08:22:55.073Z,101080.09
2022-12-12T08:25:22.191Z,101081.91
2022-12-12T08:27:48.923Z,101078.28
2022-12-12T08:30:16.403Z,101067.66
2022-12-12T08:32:43.250Z,101079.97
2022-12-12T08:35:10.173Z,101071.19
2022-12-12T08:37:37.354Z,101071.13
2022-12-12T08:40:04.688Z,101065.75
2022-12-12T08:42:31.389Z,101072.72
2022-12-12T08:44:58.135Z,101062.06
2022-12-12T08:47:24.903Z,101052.25
2022-12-12T08:49:51.665Z,101057.53
2022-12-12T08:52:18.377Z,101053.84
2022-12-12T08:54:45.070Z,101059.88
2022-12-12T08:57:12.076Z,101048.31
2022-12-12T08:59:38.789Z,101050.09
2022-12-12T09:02:05.729Z,101067.78
2022-12-12T09:04:34.583Z,101064.97
2022-12-12T09:07:05.017Z,101052.50
2022-12-12T09:09:35.083Z,101064.94
2022-12-12T09:12:02.049Z,101068.47
2022-12-12T09:14:28.896Z,101065.50
2022-12-12T09:16:55.900Z,101055.56
2022-12-12T09:19:22.701Z,101064.28
2022-12-12T09:21:49.434Z,101065.97
2022-12-12T09:24:16.608Z,101067.47
2022-12-12T09:26:43.282Z,101058.41
2022-12-12T09:29:11.256Z,101058.19
2022-12-12T09:31:38.083Z,101058.06
2022-12-12T09:34:05.027Z,101059.66
2022-12-12T09:36:31.800Z,101053.31
2022-12-12T09:38:58.619Z,101059.31
2022-12-12T09:41:27.295Z,101047.53
2022-12-12T09:44:09.822Z,101047.25
2022-12-12T09:46:47.203Z,101052.25
2022-12-12T09:49:15.725Z,101061.13
2022-12-12T09:51:49.040Z,101056.66
2022-12-12T09:54:25.400Z,101059.13
2022-12-12T09:56:57.943Z,101061.50
2022-12-12T09:59:53.724Z,101062.06
2022-12-12T10:02:37.187Z,101062.78
2022-12-12T10:05:15.660Z,101069.47
2022-12-12T10:07:56.095Z,101079.34
2022-12-12T10:10:28.817Z,101070.16
2022-12-12T10:12:58.451Z,101066.31
2022-12-12T10:15:29.772Z,101068.69
2022-12-12T10:18:00.299Z,101063.88
2022-12-12T10:20:33.485Z,101070.00
2022-12-12T10:23:03.217Z,101078.81
2022-12-12T10:26:01.735Z,101077.97
2022-12-12T10:28:31.850Z,101077.34
2022-12-12T10:31:05.121Z,101082.66
2022-12-12T10:33:58.005Z,101074.41
2022-12-12T10:36:27.748Z,101072.78
2022-12-12T10:39:06.759Z,101072.84
2022-12-12T10:41:45.650Z,101074.31
2022-12-12T10:44:37.044Z,101063.59
2022-12-12T10:47:09.941Z,101064.22
2022-12-12T10:49:36.892Z,101063.31
2022-12-12T10:52:07.082Z,101057.84
2022-12-12T10:54:39.728Z,101065.72
2022-12-12T10:57:22.124Z,101057.50
2022-12-12T10:59:52.333Z,101058.25
2022-12-12T11:02:25.075Z,101062.47
2022-12-12T11:05:10.364Z,101058.66
2022-12-12T11:07:39.708Z,101057.38
2022-12-12T11:10:26.881Z,101041.84
2022-12-12T11:12:59.847Z,101047.00
2022-12-12T11:15:38.567Z,101044.97
2022-12-12T11:18:06.685Z,101043.72
2022-12-12T11:20:33.466Z,101050.09
2022-12-12T11:23:00.441Z,101047.84
2022-12-12T11:25:30.418Z,101044.25
2022-12-12T11:28:06.420Z,101052.41
2022-12-12T11:30:41.898Z,101053.16
2022-12-12T11:33:17.484Z,101050.50
2022-12-12T11:35:47.717Z,101045.84
2022-12-12T11:38:20.819Z,101051.59
2022-12-12T11:41:07.119Z,101048.31
2022-12-12T11:43:53.023Z,101049.09
2022-12-12T11:46:28.168Z,101058.19
2022-12-12T11:48:54.811Z,101066.22
2022-12-12T11:51:36.686Z,101066.59
2022-12-12T11:54:29.369Z,101066.44
2022-12-12T11:57:03.387Z,101078.97
2022-12-12T11:59:30.046Z,101077.03
2022-12-12T12:02:14.986Z,101077.50
2022-12-12T12:04:58.119Z,101070.03
2022-12-12T12:08:03.409Z,101068.03
2022-12-12T12:11:02.398Z,101070.97
2022-12-12T12:13:56.920Z,101065.22
2022-12-12T12:16:38.678Z,101066.38
2022-12-12T12:19:19.302Z,101068.13
2022-12-12T12:22:04.393Z,101068.03
2022-12-12T12:24:37.013Z,101065.41
2022-12-12T12:27:18.838Z,101072.63
2022-12-12T12:30:03.698Z,101070.81
2022-12-12T12:32:58.256Z,101075.13
2022-12-12T12:35:32.155Z,101070.91
2022-12-12T12:38:06.438Z,101067.38
2022-12-12T12:41:01.065Z,101072.50
2022-12-12T12:43:30.759Z,101068.28
2022-12-12T12:46:12.465Z,101078.22
2022-12-12T12:48:53.117Z,101071.09
2022-12-12T12:52:06.041Z,101071.94
2022-12-12T12:54:38.760Z,101070.19
2022-12-12T12:57:30.000Z,101082.78
2022-12-12T13:00:00.673Z,101069.47
2022-12-12T13:02:56.326Z,101075.84
2022-12-12T13:05:39.533Z,101079.47
2022-12-12T13:08:29.164Z,101084.88
2022-12-12T13:11:02.017Z,101084.13
2022-12-12T13:13:36.671Z,101083.31
2022-12-12T13:16:14.264Z,101084.25
2022-12-12T13:18:45.746Z,101090.50
2022-12-12T13:21:34.650Z,101091.44
2022-12-12T13:24:20.101Z,101086.84
2022-12-12T13:26:55.884Z,101091.47
2022-12-12T13:29:45.879Z,101090.81
2022-12-12T13:32:34.439Z,101094.31
2022-12-12T13:35:09.050Z,101089.81
2022-12-12T13:37:45.112Z,101093.38
2022-12-12T13:40:24.277Z,101099.84
2022-12-12T13:43:09.188Z,101105.09
2022-12-12T13:45:45.294Z,101100.00
2022-12-12T13:48:27.452Z,101117.81
2022-12-12T13:51:28.323Z,101109.63
2022-12-12T13:54:11.971Z,101104.97
2022-12-12T13:57:08.476Z,101109.38
2022-12-12T13:59:58.292Z,101101.75
2022-12-12T14:02:32.838Z,101105.47
2022-12-12T14:05:21.580Z,101109.91
2022-12-12T14:07:57.624Z,101106.41
2022-12-12T14:10:35.751Z,101105.75
2022-12-12T14:13:21.154Z,101111.16
2022-12-12T14:16:18.584Z,101106.88
2022-12-12T14:18:51.375Z,101116.75
2022-12-12T14:21:20.837Z,101117.59
2022-12-12T14:23:49.414Z,101114.16
2022-12-12T14:26:28.177Z,101125.81
2022-12-12T14:29:16.586Z,101117.03
2022-12-12T14:32:14.148Z,101122.63
2022-12-12T14:34:49.627Z,101121.91
2022-12-12T14:37:31.139Z,101124.72
2022-12-12T14:40:11.280Z,101118.88
2022-12-12T14:43:20.764Z,101123.28
2022-12-12T14:45:49.071Z,101125.44
2022-12-12T14:48:34.039Z,101124.75
2022-12-12T14:51:07.254Z,101134.56
2022-12-12T14:53:44.003Z,101148.81
2022-12-12T14:56:29.297Z,101141.84
2022-12-12T14:58:59.631Z,101148.28
2022-12-12T15:01:33.434Z,101151.88
2022-12-12T15:04:04.032Z,101152.84
2022-12-12T15:06:34.019Z,101156.69
2022-12-12T15:09:17.536Z,101159.72
2022-12-12T15:11:45.514Z,101163.34
2022-12-12T15:14:30.550Z,101167.75
2022-12-12T15:17:23.613Z,101166.84
2022-12-12T15:20:01.114Z,101162.25
2022-12-12T15:22:33.575Z,101155.16
2022-12-12T15:25:18.205Z,101170.13
2022-12-12T15:27:53.814Z,101155.97
2022-12-12T15:30:41.917Z,101159.69
2022-12-12T15:33:17.323Z,101164.16
2022-12-12T15:36:01.098Z,101151.59
2022-12-12T15:38:29.030Z,101151.53
2022-12-12T15:40:59.047Z,101152.31
2022-12-12T15:43:30.678Z,101142.47
2022-12-12T15:46:00.171Z,101134.34
2022-12-12T15:48:27.716Z,101128.91
2022-12-12T15:51:01.799Z,101127.03
2022-12-12T15:53:31.592Z,101127.00
2022-12-12T15:56:21.309Z,101131.66
2022-12-12T15:58:51.936Z,101127.09
2022-12-12T16:01:28.185Z,101122.56
2022-12-12T16:04:01.045Z,101124.28
2022-12-12T16:06:32.726Z,101113.69
2022-12-12T16:08:59.322Z,101108.22
2022-12-12T16:11:45.883Z,101103.78
2022-12-12T16:14:35.342Z,101100.25
2022-12-12T16:17:24.773Z,101103.03
2022-12-12T16:19:55.946Z,101108.38
2022-12-12T16:22:46.417Z,101112.78
2022-12-12T16:25:28.070Z,101089.31
2022-12-12T16:28:07.763Z,101083.06
2022-12-12T16:30:36.137Z,101089.38
2022-12-12T16:33:33.077Z,101091.28
2022-12-12T16:36:12.779Z,101092.34
2022-12-12T16:38:40.667Z,101094.13
2022-12-12T16:41:17.700Z,101089.69
2022-12-12T16:43:44.903Z,101082.56
2022-12-12T16:46:19.640Z,101077.31
2022-12-12T16:48:46.785Z,101080.88
2022-12-12T16:51:29.930Z,101083.53
2022-12-12T16:53:56.879Z,101083.59
2022-12-12T16:56:23.636Z,101082.63
2022-12-12T16:58:50.931Z,101082.47
2022-12-12T17:01:18.729Z,101090.34
2022-12-12T17:03:45.899Z,101090.41
2022-12-12T17:06:12.666Z,101094.00
2022-12-12T17:08:39.403Z,101097.84
2022-12-12T17:11:10.174Z,101106.00
2022-12-12T17:13:39.324Z,101101.44
2022-12-12T17:16:06.246Z,101090.66
2022-12-12T17:18:33.013Z,101083.47
2022-12-12T17:21:00.016Z,101091.75
2022-12-12T17:23:29.535Z,101090.81
2022-12-12T17:26:02.957Z,101080.94
2022-12-12T17:28:30.786Z,101085.19
2022-12-12T17:30:57.503Z,101086.28
2022-12-12T17:33:24.215Z,101088.16
2022-12-12T17:36:05.863Z,101071.13
2022-12-12T17:38:33.374Z,101074.63
2022-12-12T17:41:04.950Z,101082.66
2022-12-12T17:43:55.471Z,101085.44
2022-12-12T17:46:23.412Z,101079.97
2022-12-12T17:48:50.208Z,101075.53
2022-12-12T17:51:23.863Z,101075.66
2022-12-12T17:53:52.520Z,101069.28
2022-12-12T17:56:24.421Z,101070.91
2022-12-12T17:58:51.684Z,101065.59
2022-12-12T18:01:29.765Z,101057.63
2022-12-12T18:03:58.635Z,101060.28
2022-12-12T18:06:26.722Z,101056.59
2022-12-12T18:08:54.622Z,101059.16
2022-12-12T18:11:26.792Z,101051.16
2022-12-12T18:13:57.441Z,101049.47
2022-12-12T18:16:24.966Z,101043.69
2022-12-12T18:18:52.762Z,101047.19
2022-12-12T18:21:58.533Z,101043.69
2022-12-12T18:24:10.836Z,101040.50
2022-12-12T18:26:37.659Z,101044.03
2022-12-12T18:29:06.681Z,101049.44
2022-12-12T18:31:34.629Z,101057.41
2022-12-12T18:34:01.724Z,101050.22
2022-12-12T18:36:30.374Z,101042.88
2022-12-12T18:38:58.633Z,101043.81
2022-12-12T18:41:27.357Z,101041.06
2022-12-12T18:43:55.188Z,101039.34
2022-12-12T18:46:24.820Z,101039.34
2022-12-12T18:48:51.829Z,101035.94
2022-12-12T18:51:24.172Z,101040.41
2022-12-12T18:53:52.956Z,101035.09
2022-12-12T18:56:26.347Z,101035.88
2022-12-12T18:58:54.459Z,101028.69
2022-12-12T19:01:24.046Z,101026.81
2022-12-12T19:03:53.503Z,101028.53
2022-12-12T19:06:23.314Z,101024.84
2022-12-12T19:08:50.371Z,101017.75
2022-12-12T19:11:17.493Z,101019.59
2022-12-12T19:13:46.381Z,101012.38
2022-12-12T19:16:16.953Z,101003.41
2022-12-12T19:18:44.093Z,101001.50
2022-12-12T19:21:14.707Z,100990.78
2022-12-12T19:23:41.941Z,100997.75
2022-12-12T19:26:12.034Z,100994.25
2022-12-12T19:28:39.107Z,100983.41
2022-12-12T19:31:14.906Z,100991.38
2022-12-12T19:33:44.398Z,100998.53
2022-12-12T19:36:17.248Z,101000.94
2022-12-12T19:38:44.295Z,101008.56
2022-12-12T19:41:15.821Z,101008.78
2022-12-12T19:43:56.587Z,101010.41
2022-12-12T19:46:26.070Z,101012.56
2022-12-12T19:48:58.127Z,101011.66
2022-12-12T19:51:26.101Z,101019.69
2022-12-12T19:53:58.398Z,101021.34
2022-12-12T19:56:27.827Z,101028.41
2022-12-12T19:58:55.772Z,101019.69
2022-12-12T20:01:26.319Z,101028.47
2022-12-12T20:03:55.625Z,101025.03
2022-12-12T20:06:25.203Z,101025.13
2022-12-12T20:08:52.090Z,101024.91
2022-12-12T20:11:21.570Z,101015.91
2022-12-12T20:13:53.107Z,101004.28
2022-12-12T20:16:22.274Z,101015.22
2022-12-12T20:18:49.690Z,101016.91
2022-12-12T20:21:43.562Z,101016.75
2022-12-12T20:24:06.937Z,101011.38
2022-12-12T20:26:34.237Z,101010.38
2022-12-12T20:29:01.350Z,101007.59
2022-12-12T20:31:34.486Z,101014.09
2022-12-12T20:34:01.735Z,101003.25
2022-12-12T20:36:31.163Z,101001.31
2022-12-12T20:39:00.590Z,101010.09
2022-12-12T20:41:30.038Z,100998.53
2022-12-12T20:43:58.433Z,100996.78
2022-12-12T20:46:32.126Z,100995.81
2022-12-12T20:49:04.261Z,100995.75
2022-12-12T20:54:21.573Z,100997.69
2022-12-12T20:56:49.788Z,100993.16
2022-12-12T20:59:16.527Z,100987.72
2022-12-12T21:01:43.298Z,101001.50
2022-12-12T21:04:10.155Z,101001.53
2022-12-12T21:06:39.525Z,101006.00
2022-12-12T21:09:09.830Z,101010.69
2022-12-12T21:11:38.125Z,101002.84
2022-12-12T21:14:06.492Z,101002.84
2022-12-12T21:16:38.562Z,101001.06
2022-12-12T21:19:11.535Z,101004.69
2022-12-12T21:21:40.141Z,101001.25
2022-12-12T21:24:07.064Z,101005.66
2022-12-12T21:26:34.434Z,101001.09
2022-12-12T21:29:01.980Z,100999.88
2022-12-12T21:31:31.851Z,101003.97
2022-12-12T21:33:59.455Z,101007.63
2022-12-12T21:36:28.005Z,101004.31
2022-12-12T21:38:56.395Z,101015.91
2022-12-12T21:41:23.620Z,101018.69
2022-12-12T21:43:50.980Z,101010.69
2022-12-12T21:46:23.378Z,101014.22
2022-12-12T21:49:10.054Z,101014.16
2022-12-12T21:51:37.617Z,101018.94
2022-12-12T21:54:05.624Z,101018.00
2022-12-12T21:56:32.853Z,101021.44
2022-12-12T21:59:00.306Z,101026.72
2022-12-12T22:01:27.790Z,101033.00
2022-12-12T22:03:55.515Z,101037.50
2022-12-12T22:06:25.447Z,101027.81
2022-12-12T22:08:54.716Z,101026.97
2022-12-12T22:11:33.942Z,101026.88
2022-12-12T22:14:09.462Z,101024.16
2022-12-12T22:16:36.939Z,101023.41
2022-12-12T22:19:06.855Z,101027.88
2022-12-12T22:21:34.583Z,101027.28
2022-12-12T22:24:01.924Z,101034.44
2022-12-12T22:26:36.741Z,101035.50
2022-12-12T22:29:06.665Z,101033.63
2022-12-12T22:31:37.439Z,101038.97
2022-12-12T22:34:07.588Z,101043.63
2022-12-12T22:36:36.592Z,101036.72
2022-12-12T22:39:05.529Z,101046.50
2022-12-12T22:42:15.477Z,101055.44
2022-12-12T22:44:42.309Z,101051.00
2022-12-12T22:47:09.112Z,101050.00
2022-12-12T22:49:35.890Z,101054.38
2022-12-12T22:52:02.613Z,101050.88
2022-12-12T22:54:29.311Z,101035.63
2022-12-12T22:56:55.990Z,101038.19
2022-12-12T22:59:22.751Z,101026.53
2022-12-12T23:01:49.455Z,101011.28
2022-12-12T23:04:19.123Z,101007.69
2022-12-12T23:06:45.968Z,101005.78
2022-12-12T23:09:16.707Z,101007.53
2022-12-12T23:11:44.770Z,100995.47
2022-12-12T23:14:14.902Z,100994.25
2022-12-12T23:16:42.793Z,100999.75
2022-12-12T23:19:10.464Z,100999.19
2022-12-12T23:21:38.188Z,100993.97
2022-12-12T23:24:06.012Z,101000.16
2022-12-12T23:26:36.566Z,100988.59
2022-12-12T23:29:07.177Z,100991.13
2022-12-12T23:31:35.995Z,100995.47
2022-12-12T23:34:06.862Z,100994.63
2022-12-12T23:36:33.724Z,101000.88
2022-12-12T23:39:03.746Z,100989.59
2022-12-12T23:41:30.465Z,100993.28
2022-12-12T23:43:57.167Z,100992.25
2022-12-12T23:46:33.448Z,100986.84
2022-12-12T23:49:06.187Z,100980.59
2022-12-12T23:51:36.382Z,100981.44
2022-12-12T23:54:05.141Z,100975.19
2022-12-12T23:56:32.147Z,100981.06
2022-12-12T23:58:59.648Z,100984.06
